createdAt,value
2023-05-21T00:00:10.683Z,99306.44
2023-05-21T00:03:16.480Z,99306.06
2023-05-21T00:06:21.160Z,99303.03
2023-05-21T00:09:23.598Z,99304.50
2023-05-21T00:12:26.092Z,99310.06
2023-05-21T00:15:28.426Z,99304.59
2023-05-21T00:18:32.470Z,99306.94
2023-05-21T00:21:34.874Z,99304.91
2023-05-21T00:24:37.148Z,99304.03
2023-05-21T00:27:39.611Z,99306.59
2023-05-21T00:30:43.098Z,99310.06
2023-05-21T00:33:45.374Z,99312.63
2023-05-21T00:36:47.779Z,99313.44
2023-05-21T00:39:50.562Z,99308.94
2023-05-21T00:42:57.123Z,99309.69
2023-05-21T00:46:00.008Z,99304.34
2023-05-21T00:49:02.516Z,99304.19
2023-05-21T00:52:05.460Z,99304.03
2023-05-21T00:55:09.138Z,99312.66
2023-05-21T00:58:11.997Z,99315.31
2023-05-21T01:01:14.360Z,99313.38
2023-05-21T01:04:17.807Z,99317.38
2023-05-21T01:07:20.258Z,99313.41
2023-05-21T01:10:23.436Z,99308.75
2023-05-21T01:13:26.428Z,99307.06
2023-05-21T01:16:28.848Z,99303.19
2023-05-21T01:19:35.541Z,99306.50
2023-05-21T01:22:54.315Z,99315.19
2023-05-21T01:25:56.730Z,99306.00
2023-05-21T01:28:59.468Z,99312.66
2023-05-21T01:32:04.439Z,99313.13
2023-05-21T01:35:36.230Z,99311.91
2023-05-21T01:38:47.586Z,99310.59
2023-05-21T01:41:53.517Z,99304.09
2023-05-21T01:44:59.613Z,99300.28
2023-05-21T01:48:03.334Z,99301.16
2023-05-21T01:51:06.590Z,99301.03
2023-05-21T01:54:08.934Z,99298.34
2023-05-21T01:57:11.294Z,99297.38
2023-05-21T02:00:14.295Z,99300.75
2023-05-21T02:03:20.772Z,99292.50
2023-05-21T02:06:23.522Z,99301.59
2023-05-21T02:09:25.884Z,99296.78
2023-05-21T02:12:28.356Z,99292.25
2023-05-21T02:15:30.722Z,99283.41
2023-05-21T02:18:34.172Z,99284.75
2023-05-21T02:21:36.538Z,99283.50
2023-05-21T02:24:38.868Z,99277.63
2023-05-21T02:27:42.599Z,99279.00
2023-05-21T02:30:45.008Z,99279.63
2023-05-21T02:33:47.796Z,99276.03
2023-05-21T02:36:53.797Z,99289.47
2023-05-21T02:39:56.404Z,99286.59
2023-05-21T02:42:58.706Z,99280.44
2023-05-21T02:46:01.216Z,99288.91
2023-05-21T02:49:05.173Z,99298.66
2023-05-21T02:52:07.758Z,99297.31
2023-05-21T02:55:10.626Z,99292.41
2023-05-21T02:58:13.690Z,99295.69
2023-05-21T03:01:16.990Z,99292.69
2023-05-21T03:04:22.140Z,99287.59
2023-05-21T03:07:24.555Z,99287.03
2023-05-21T03:10:26.911Z,99279.88
2023-05-21T03:13:29.739Z,99286.84
2023-05-21T03:16:34.754Z,99289.72
2023-05-21T03:19:37.524Z,99281.53
2023-05-21T03:22:40.559Z,99285.34
2023-05-21T03:25:43.476Z,99292.28
2023-05-21T03:28:46.770Z,99291.66
2023-05-21T03:31:49.713Z,99299.84
2023-05-21T03:34:52.295Z,99287.06
2023-05-21T03:37:54.646Z,99296.00
2023-05-21T03:40:56.936Z,99284.75
2023-05-21T03:43:59.594Z,99289.50
2023-05-21T03:47:06.524Z,99294.00
2023-05-21T03:50:11.136Z,99293.50
2023-05-21T03:53:13.974Z,99290.38
2023-05-21T03:56:17.849Z,99284.13
2023-05-21T03:59:20.187Z,99284.72
2023-05-21T04:02:23.456Z,99282.56
2023-05-21T04:05:25.997Z,99281.84
2023-05-21T04:08:28.518Z,99293.66
2023-05-21T04:11:31.415Z,99286.22
2023-05-21T04:14:34.260Z,99289.88
2023-05-21T04:17:36.642Z,99290.56
2023-05-21T04:20:39.124Z,99288.19
2023-05-21T04:23:41.718Z,99292.78
2023-05-21T04:26:52.317Z,99292.19
2023-05-21T04:29:54.897Z,99295.84
2023-05-21T04:33:00.269Z,99292.44
2023-05-21T04:36:03.914Z,99294.34
2023-05-21T04:39:07.313Z,99289.59
2023-05-21T04:42:11.184Z,99296.22
2023-05-21T04:45:14.228Z,99292.03
2023-05-21T04:48:19.311Z,99297.84
2023-05-21T04:51:24.785Z,99301.03
2023-05-21T04:54:27.708Z,99296.56
2023-05-21T04:57:30.067Z,99290.22
2023-05-21T05:00:33.485Z,99286.59
2023-05-21T05:03:36.507Z,99283.91
2023-05-21T05:06:39.581Z,99286.00
2023-05-21T05:09:42.340Z,99288.47
2023-05-21T05:12:44.737Z,99281.44
2023-05-21T05:15:49.615Z,99292.78
2023-05-21T05:18:53.948Z,99290.53
2023-05-21T05:21:57.357Z,99290.94
2023-05-21T05:24:59.734Z,99282.59
2023-05-21T05:28:02.074Z,99278.28
2023-05-21T05:31:04.715Z,99275.66
2023-05-21T05:34:08.035Z,99274.94
2023-05-21T05:37:10.440Z,99272.25
2023-05-21T05:40:12.869Z,99276.81
2023-05-21T05:43:15.342Z,99269.72
2023-05-21T05:46:17.855Z,99268.97
2023-05-21T05:49:21.076Z,99269.06
2023-05-21T05:52:23.546Z,99263.00
2023-05-21T05:55:26.841Z,99264.78
2023-05-21T05:58:31.135Z,99263.00
2023-05-21T06:01:43.514Z,99258.69
2023-05-21T06:04:46.691Z,99259.47
2023-05-21T06:07:49.713Z,99263.91
2023-05-21T06:10:52.055Z,99259.56
2023-05-21T06:13:54.452Z,99257.72
2023-05-21T06:16:57.452Z,99250.47
2023-05-21T06:20:01.240Z,99241.38
2023-05-21T06:23:03.797Z,99241.84
2023-05-21T06:26:06.400Z,99239.38
2023-05-21T06:29:09.104Z,99239.84
2023-05-21T06:32:11.893Z,99241.84
2023-05-21T06:35:15.077Z,99234.03
2023-05-21T06:38:17.488Z,99236.34
2023-05-21T06:41:19.911Z,99238.13
2023-05-21T06:44:26.749Z,99234.84
2023-05-21T06:47:58.308Z,99239.06
2023-05-21T06:51:00.581Z,99226.84
2023-05-21T06:54:03.783Z,99228.06
2023-05-21T06:57:06.374Z,99223.03
2023-05-21T07:00:09.431Z,99231.16
2023-05-21T07:03:12.608Z,99219.72
2023-05-21T07:06:15.232Z,99218.66
2023-05-21T07:09:18.422Z,99215.38
2023-05-21T07:12:21.891Z,99209.41
2023-05-21T07:15:24.416Z,99208.63
2023-05-21T07:18:26.908Z,99208.69
2023-05-21T07:21:29.850Z,99211.31
2023-05-21T07:24:32.851Z,99209.53
2023-05-21T07:27:35.168Z,99209.50
2023-05-21T07:30:37.519Z,99191.09
2023-05-21T07:33:45.203Z,99204.19
2023-05-21T07:36:48.574Z,99205.56
2023-05-21T07:39:52.051Z,99206.63
2023-05-21T07:42:58.024Z,99209.91
2023-05-21T07:46:04.957Z,99200.72
2023-05-21T07:49:07.376Z,99204.75
2023-05-21T07:52:09.761Z,99207.88
2023-05-21T07:55:12.068Z,99205.94
2023-05-21T07:58:19.890Z,99212.38
2023-05-21T08:01:24.081Z,99207.84
2023-05-21T08:04:27.158Z,99212.91
2023-05-21T08:07:30.198Z,99207.16
2023-05-21T08:10:32.987Z,99214.25
2023-05-21T08:13:36.087Z,99210.53
2023-05-21T08:16:40.112Z,99200.94
2023-05-21T08:19:42.716Z,99204.88
2023-05-21T08:22:46.948Z,99206.59
2023-05-21T08:25:49.454Z,99207.56
2023-05-21T08:28:52.267Z,99213.16
2023-05-21T08:31:54.708Z,99203.09
2023-05-21T08:35:00.825Z,99205.50
2023-05-21T08:38:28.784Z,99207.63
2023-05-21T08:41:53.214Z,99209.28
2023-05-21T08:44:59.794Z,99197.53
2023-05-21T08:48:02.773Z,99204.13
2023-05-21T08:51:11.255Z,99204.84
2023-05-21T08:54:19.624Z,99208.38
2023-05-21T08:57:25.440Z,99200.94
2023-05-21T09:00:37.293Z,99189.81
2023-05-21T09:03:43.710Z,99198.88
2023-05-21T09:06:49.927Z,99205.44
2023-05-21T09:10:11.204Z,99193.66
2023-05-21T09:13:15.163Z,99201.31
2023-05-21T09:16:17.753Z,99194.81
2023-05-21T09:19:22.328Z,99201.94
2023-05-21T09:22:24.897Z,99197.50
2023-05-21T09:25:33.707Z,99191.34
2023-05-21T09:28:43.689Z,99196.94
2023-05-21T09:31:46.254Z,99190.66
2023-05-21T09:34:49.495Z,99190.75
2023-05-21T09:37:53.509Z,99191.63
2023-05-21T09:40:57.040Z,99189.81
2023-05-21T09:44:02.063Z,99192.78
2023-05-21T09:47:05.546Z,99186.81
2023-05-21T09:50:12.622Z,99192.72
2023-05-21T09:53:15.032Z,99175.59
2023-05-21T09:56:37.538Z,99185.59
2023-05-21T09:59:40.137Z,99185.06
2023-05-21T10:02:49.333Z,99185.59
2023-05-21T10:05:53.773Z,99194.22
2023-05-21T10:08:57.820Z,99195.47
2023-05-21T10:12:00.273Z,99180.75
2023-05-21T10:15:09.283Z,99185.31
2023-05-21T10:18:16.797Z,99184.78
2023-05-21T10:21:19.155Z,99177.94
2023-05-21T10:24:22.408Z,99177.78
2023-05-21T10:27:24.914Z,99182.50
2023-05-21T10:30:27.537Z,99174.19
2023-05-21T10:33:33.048Z,99166.88
2023-05-21T10:36:38.537Z,99162.72
2023-05-21T10:39:43.491Z,99165.19
2023-05-21T10:42:57.546Z,99166.59
2023-05-21T10:46:20.656Z,99163.91
2023-05-21T10:49:27.136Z,99157.31
2023-05-21T10:52:52.994Z,99167.56
2023-05-21T10:56:35.914Z,99158.38
2023-05-21T10:59:53.434Z,99148.63
2023-05-21T11:02:56.016Z,99146.66
2023-05-21T11:06:01.443Z,99143.72
2023-05-21T11:09:14.332Z,99147.59
2023-05-21T11:12:18.459Z,99149.91
2023-05-21T11:15:20.955Z,99142.63
2023-05-21T11:18:24.026Z,99144.75
2023-05-21T11:21:30.536Z,99135.50
2023-05-21T11:24:33.892Z,99136.31
2023-05-21T11:27:43.167Z,99141.53
2023-05-21T11:31:26.176Z,99147.41
2023-05-21T11:34:48.609Z,99140.41
2023-05-21T11:37:54.065Z,99140.00
2023-05-21T11:41:03.167Z,99133.50
2023-05-21T11:44:08.884Z,99136.75
2023-05-21T11:47:15.594Z,99133.13
2023-05-21T11:50:18.356Z,99126.81
2023-05-21T11:53:20.673Z,99131.88
2023-05-21T11:56:26.615Z,99128.84
2023-05-21T11:59:29.134Z,99128.41
2023-05-21T12:02:32.779Z,99129.25
2023-05-21T12:05:48.887Z,99122.88
2023-05-21T12:08:52.631Z,99124.81
2023-05-21T12:11:55.073Z,99109.88
2023-05-21T12:14:58.540Z,99117.16
2023-05-21T12:18:01.304Z,99109.44
2023-05-21T12:21:04.884Z,99113.31
2023-05-21T12:24:07.174Z,99101.78
2023-05-21T12:27:10.775Z,99104.69
2023-05-21T12:30:13.796Z,99099.44
2023-05-21T12:33:18.033Z,99093.66
2023-05-21T12:36:27.251Z,99093.38
2023-05-21T12:39:30.308Z,99094.31
2023-05-21T12:42:36.083Z,99091.59
2023-05-21T12:45:41.706Z,99100.38
2023-05-21T12:48:53.311Z,99087.16
2023-05-21T12:51:57.035Z,99081.75
2023-05-21T12:55:00.159Z,99082.03
2023-05-21T12:58:08.204Z,99080.84
2023-05-21T13:01:12.170Z,99073.66
2023-05-21T13:04:14.570Z,99082.69
2023-05-21T13:07:18.516Z,99070.81
2023-05-21T13:10:20.982Z,99065.34
2023-05-21T13:13:23.252Z,99067.69
2023-05-21T13:16:25.632Z,99059.69
2023-05-21T13:19:28.289Z,99054.69
2023-05-21T13:22:33.802Z,99050.06
2023-05-21T13:25:40.405Z,99045.63
2023-05-21T13:28:43.716Z,99048.53
2023-05-21T13:31:46.830Z,99047.34
2023-05-21T13:34:49.225Z,99049.75
2023-05-21T13:37:51.806Z,99054.31
2023-05-21T13:40:54.132Z,99046.75
2023-05-21T13:43:56.727Z,99050.63
2023-05-21T13:46:59.337Z,99044.25
2023-05-21T13:50:04.055Z,99040.13
2023-05-21T13:53:06.331Z,99038.00
2023-05-21T13:56:08.800Z,99043.81
2023-05-21T13:59:11.156Z,99032.47
2023-05-21T14:02:16.729Z,99030.84
2023-05-21T14:05:19.106Z,99029.81
2023-05-21T14:08:23.663Z,99030.81
2023-05-21T14:11:28.041Z,99023.28
2023-05-21T14:14:31.504Z,99024.84
2023-05-21T14:17:33.980Z,99031.97
2023-05-21T14:20:37.636Z,99026.63
2023-05-21T14:23:39.969Z,99027.44
2023-05-21T14:26:42.366Z,99027.44
2023-05-21T14:29:44.757Z,99017.19
2023-05-21T14:32:47.046Z,99029.50
2023-05-21T14:35:49.382Z,99020.78
2023-05-21T14:38:51.675Z,99012.88
2023-05-21T14:41:53.995Z,99024.19
2023-05-21T14:48:08.558Z,99014.50
2023-05-21T14:51:11.055Z,99015.28
2023-05-21T14:54:14.036Z,99007.59
2023-05-21T14:57:16.337Z,99019.06
2023-05-21T15:00:18.921Z,99013.88
2023-05-21T15:03:21.695Z,99006.81
2023-05-21T15:06:24.428Z,99007.72
2023-05-21T15:09:26.771Z,99005.19
2023-05-21T15:12:29.218Z,99006.00
2023-05-21T15:15:34.265Z,99006.03
2023-05-21T15:18:38.761Z,98997.28
2023-05-21T15:21:41.134Z,98998.22
2023-05-21T15:24:44.851Z,99003.50
2023-05-21T15:27:49.347Z,99006.16
2023-05-21T15:30:53.985Z,99006.16
2023-05-21T15:34:00.460Z,98996.53
2023-05-21T15:37:06.664Z,98993.94
2023-05-21T15:40:09.713Z,98997.44
2023-05-21T15:43:11.999Z,98994.78
2023-05-21T15:46:14.432Z,98992.19
2023-05-21T15:49:17.310Z,98993.97
2023-05-21T15:52:20.075Z,98987.84
2023-05-21T15:55:24.117Z,98996.63
2023-05-21T15:58:26.840Z,98998.38
2023-05-21T16:01:29.672Z,98994.03
2023-05-21T16:04:33.840Z,98994.88
2023-05-21T16:07:37.886Z,99000.09
2023-05-21T16:10:41.727Z,99005.34
2023-05-21T16:13:45.584Z,99005.34
2023-05-21T16:16:48.049Z,99001.84
2023-05-21T16:19:52.897Z,99012.31
2023-05-21T16:22:56.101Z,99008.78
2023-05-21T16:25:58.437Z,99012.22
2023-05-21T16:29:04.372Z,99011.34
2023-05-21T16:32:06.864Z,99008.69
2023-05-21T16:35:09.386Z,99013.91
2023-05-21T16:38:11.828Z,99016.44
2023-05-21T16:41:14.129Z,99010.28
2023-05-21T16:44:16.696Z,99025.97
2023-05-21T16:47:18.992Z,99020.66
2023-05-21T16:50:21.564Z,99017.97
2023-05-21T16:53:23.948Z,99023.13
2023-05-21T16:56:27.649Z,99026.56
2023-05-21T16:59:30.021Z,99027.38
2023-05-21T17:02:32.329Z,99029.00
2023-05-21T17:05:41.116Z,99028.00
2023-05-21T17:08:43.981Z,99031.41
2023-05-21T17:11:46.331Z,99027.81
2023-05-21T17:14:48.763Z,99030.34
2023-05-21T17:17:51.121Z,99020.69
2023-05-21T17:20:55.999Z,99033.59
2023-05-21T17:23:58.854Z,99032.66
2023-05-21T17:27:01.105Z,99028.97
2023-05-21T17:30:04.594Z,99029.78
2023-05-21T17:33:07.894Z,99033.16
2023-05-21T17:36:10.524Z,99024.28
2023-05-21T17:39:12.947Z,99028.44
2023-05-21T17:42:15.296Z,99024.03
2023-05-21T17:45:17.684Z,99029.88
2023-05-21T17:48:20.229Z,99025.41
2023-05-21T17:51:22.640Z,99033.91
2023-05-21T17:54:25.132Z,99036.31
2023-05-21T17:57:27.832Z,99031.72
2023-05-21T18:00:32.120Z,99035.03
2023-05-21T18:03:34.623Z,99038.28
2023-05-21T18:06:37.000Z,99036.38
2023-05-21T18:09:39.414Z,99037.91
2023-05-21T18:12:42.279Z,99038.72
2023-05-21T18:15:45.365Z,99032.38
2023-05-21T18:18:47.879Z,99031.22
2023-05-21T18:21:50.365Z,99028.41
2023-05-21T18:24:52.727Z,99029.94
2023-05-21T18:27:55.224Z,99028.75
2023-05-21T18:31:01.007Z,99025.03
2023-05-21T18:34:03.651Z,99026.44
2023-05-21T18:37:06.797Z,99032.03
2023-05-21T18:40:10.256Z,99033.44
2023-05-21T18:43:14.013Z,99029.59
2023-05-21T18:46:19.463Z,99033.88
2023-05-21T18:49:22.038Z,99037.16
2023-05-21T18:52:24.465Z,99045.63
2023-05-21T18:55:28.796Z,99050.63
2023-05-21T18:58:33.493Z,99047.19
2023-05-21T19:01:36.149Z,99053.19
2023-05-21T19:04:39.398Z,99057.06
2023-05-21T19:07:42.010Z,99060.34
2023-05-21T19:10:45.748Z,99052.34
2023-05-21T19:13:48.351Z,99058.06
2023-05-21T19:16:51.620Z,99065.53
2023-05-21T19:19:58.218Z,99068.97
2023-05-21T19:23:06.659Z,99072.53
2023-05-21T19:26:17.324Z,99079.25
2023-05-21T19:29:21.620Z,99063.25
2023-05-21T19:32:26.292Z,99070.31
2023-05-21T19:35:33.256Z,99075.69
2023-05-21T19:38:56.610Z,99084.25
2023-05-21T19:42:05.351Z,99073.19
2023-05-21T19:45:09.767Z,99076.44
2023-05-21T19:48:16.143Z,99077.13
2023-05-21T19:51:19.035Z,99074.59
2023-05-21T19:54:26.189Z,99072.41
2023-05-21T19:57:32.697Z,99071.13
2023-05-21T20:00:37.948Z,99074.56
2023-05-21T20:03:46.386Z,99069.25
2023-05-21T20:06:55.128Z,99070.84
2023-05-21T20:09:58.668Z,99076.59
2023-05-21T20:13:01.310Z,99073.28
2023-05-21T20:16:07.767Z,99079.72
2023-05-21T20:19:16.705Z,99076.53
2023-05-21T20:22:25.009Z,99071.72
2023-05-21T20:25:28.739Z,99074.81
2023-05-21T20:28:39.012Z,99076.50
2023-05-21T20:31:41.820Z,99090.97
2023-05-21T20:35:02.731Z,99082.09
2023-05-21T20:38:08.571Z,99085.13
2023-05-21T20:41:11.251Z,99075.41
2023-05-21T20:44:14.019Z,99090.94
2023-05-21T20:47:16.938Z,99098.69
2023-05-21T20:50:25.777Z,99094.75
2023-05-21T20:53:28.087Z,99094.97
2023-05-21T20:56:41.582Z,99100.44
2023-05-21T20:59:44.744Z,99095.41
2023-05-21T21:02:47.126Z,99095.66
2023-05-21T21:05:49.511Z,99094.34
2023-05-21T21:08:52.445Z,99094.66
2023-05-21T21:11:56.131Z,99088.75
2023-05-21T21:14:58.426Z,99096.38
2023-05-21T21:18:00.751Z,99102.13
2023-05-21T21:21:03.144Z,99104.44
2023-05-21T21:24:06.084Z,99108.63
2023-05-21T21:27:08.454Z,99111.22
2023-05-21T21:30:11.112Z,99105.66
2023-05-21T21:33:14.457Z,99102.34
2023-05-21T21:36:16.874Z,99097.59
2023-05-21T21:39:19.163Z,99105.00
2023-05-21T21:42:21.510Z,99107.50
2023-05-21T21:45:23.862Z,99099.44
2023-05-21T21:48:26.288Z,99104.53
2023-05-21T21:51:28.930Z,99098.34
2023-05-21T21:54:31.236Z,99092.22
2023-05-21T21:57:33.501Z,99083.53
2023-05-21T22:00:36.907Z,99093.84
2023-05-21T22:03:39.486Z,99091.13
2023-05-21T22:06:41.788Z,99091.06
2023-05-21T22:09:44.820Z,99084.09
2023-05-21T22:12:47.188Z,99092.50
2023-05-21T22:15:49.842Z,99090.44
2023-05-21T22:18:54.158Z,99087.47
2023-05-21T22:21:59.806Z,99083.75
2023-05-21T22:25:02.565Z,99090.47
2023-05-21T22:28:05.118Z,99092.63
2023-05-21T22:31:07.803Z,99088.38
2023-05-21T22:34:10.208Z,99095.78
2023-05-21T22:37:12.562Z,99092.22
2023-05-21T22:40:15.101Z,99092.03
2023-05-21T22:43:17.505Z,99100.50
2023-05-21T22:46:19.845Z,99094.13
2023-05-21T22:49:22.501Z,99098.31
2023-05-21T22:52:25.303Z,99096.31
2023-05-21T22:55:27.684Z,99093.28
2023-05-21T22:58:30.125Z,99089.47
2023-05-21T23:01:33.204Z,99089.16
2023-05-21T23:04:43.409Z,99092.25
2023-05-21T23:07:46.617Z,99091.03
2023-05-21T23:10:48.893Z,99085.13
2023-05-21T23:13:51.215Z,99094.44
2023-05-21T23:16:54.053Z,99094.94
2023-05-21T23:19:56.426Z,99088.78
2023-05-21T23:22:58.715Z,99091.09
2023-05-21T23:26:01.361Z,99092.28
2023-05-21T23:29:03.682Z,99089.69
2023-05-21T23:32:06.389Z,99079.53
2023-05-21T23:35:09.822Z,99080.44
2023-05-21T23:38:12.207Z,99093.34
2023-05-21T23:41:14.826Z,99105.25
2023-05-21T23:44:17.265Z,99104.38
2023-05-21T23:47:19.596Z,99094.94
2023-05-21T23:50:21.933Z,99101.28
2023-05-21T23:53:24.232Z,99094.97
2023-05-21T23:56:26.528Z,99096.56
2023-05-21T23:59:29.253Z,99094.53
